Time;durP1;ratioP1;P1;durP2;ratioP2;P2;SDS_P1;SDS_P2;PMS_P1;PMS_P2;Temp;Humidity;BMP_temperature;BMP_pressure;BME280_temperature;BME280_humidity;BME280_pressure;Samples;Min_cycle;Max_cycle;Signal;HPM_P1;HPM_P2
2024/04/10 00:00:18;;;;;;;4.85;1.67;;;;;;;8.27;100.00;100887.88;5434261;26;21426;-84
2024/04/10 00:02:48;;;;;;;4.50;1.60;;;;;;;8.27;100.00;100893.31;5445027;26;20384;-84
2024/04/10 00:05:17;;;;;;;3.90;1.70;;;;;;;8.12;100.00;100891.28;5459446;26;20392;-84
2024/04/10 00:07:47;;;;;;;6.22;1.73;;;;;;;8.16;100.00;100889.69;5422333;26;20785;-84
2024/04/10 00:10:14;;;;;;;5.90;2.03;;;;;;;8.07;100.00;100891.25;5423091;26;21103;-84
2024/04/10 00:12:44;;;;;;;5.75;1.90;;;;;;;8.13;100.00;100893.75;5400423;26;20372;-84
2024/04/10 00:15:13;;;;;;;6.22;1.90;;;;;;;8.07;100.00;100896.69;5444719;26;20410;-84
2024/04/10 00:17:45;;;;;;;7.68;1.83;;;;;;;7.99;100.00;100906.06;5431529;26;20390;-84
2024/04/10 00:20:13;;;;;;;6.28;1.90;;;;;;;8.02;100.00;100910.19;5419536;26;20361;-83
2024/04/10 00:22:43;;;;;;;6.18;2.20;;;;;;;8.08;100.00;100903.72;5445236;26;20388;-84
2024/04/10 00:25:11;;;;;;;6.97;2.10;;;;;;;8.12;100.00;100904.81;5446326;26;20409;-84
2024/04/10 00:27:41;;;;;;;6.95;1.90;;;;;;;8.13;100.00;100910.03;5408093;26;20385;-84
2024/04/10 00:30:08;;;;;;;6.43;2.00;;;;;;;8.08;100.00;100904.53;5445871;26;20384;-84
2024/04/10 00:32:40;;;;;;;6.47;2.10;;;;;;;8.08;100.00;100912.69;5447123;26;20846;-84
2024/04/10 00:35:11;;;;;;;7.25;2.20;;;;;;;8.06;100.00;100920.22;5445113;26;20380;-84
2024/04/10 00:37:41;;;;;;;7.83;2.10;;;;;;;8.05;100.00;100910.50;5442124;26;20904;-84
2024/04/10 00:40:09;;;;;;;8.40;2.00;;;;;;;8.06;100.00;100917.53;5448757;26;20396;-84
2024/04/10 00:42:39;;;;;;;7.95;2.28;;;;;;;8.06;100.00;100914.00;5446265;26;20388;-84
2024/04/10 00:45:07;;;;;;;7.17;2.10;;;;;;;8.02;100.00;100921.81;5402387;26;20538;-83
2024/04/10 00:47:37;;;;;;;6.43;2.03;;;;;;;8.03;100.00;100928.88;5411582;26;20384;-84
2024/04/10 00:50:05;;;;;;;10.68;2.22;;;;;;;7.95;100.00;100922.03;5442308;26;20721;-84
2024/04/10 00:52:39;;;;;;;10.02;2.10;;;;;;;7.95;100.00;100927.44;5415646;26;20396;-84
2024/04/10 00:55:09;;;;;;;7.50;2.30;;;;;;;7.90;100.00;100927.41;5406831;26;20393;-85
2024/04/10 00:57:39;;;;;;;5.63;1.90;;;;;;;7.86;100.00;100928.16;5417870;26;20392;-85
2024/04/10 01:00:07;;;;;;;8.82;2.03;;;;;;;7.78;100.00;100927.56;5439967;26;20400;-85
2024/04/10 01:02:38;;;;;;;9.87;2.20;;;;;;;7.66;100.00;100932.28;5448497;26;20392;-85
2024/04/10 01:05:05;;;;;;;7.82;2.10;;;;;;;7.69;100.00;100941.81;5439823;26;20384;-84
2024/04/10 01:07:38;;;;;;;6.32;2.10;;;;;;;7.70;100.00;100941.56;5410350;26;20380;-85
2024/04/10 01:10:06;;;;;;;7.70;2.33;;;;;;;7.64;100.00;100958.84;5439661;26;20382;-85
2024/04/10 01:12:38;;;;;;;10.90;2.38;;;;;;;7.58;100.00;100955.25;5438065;26;20387;-85
2024/04/10 01:15:06;;;;;;;7.95;2.30;;;;;;;7.57;100.00;100952.81;5412947;26;20396;-85
2024/04/10 01:17:36;;;;;;;7.33;2.33;;;;;;;7.64;100.00;100954.22;5447275;26;20764;-84
2024/04/10 01:20:06;;;;;;;6.97;2.35;;;;;;;7.65;100.00;100952.31;5433725;26;20782;-85
2024/04/10 01:22:40;;;;;;;5.25;2.13;;;;;;;7.61;100.00;100953.91;5400224;26;20376;-85
2024/04/10 01:25:10;;;;;;;7.28;2.35;;;;;;;7.62;100.00;100960.97;5440992;26;20388;-85
2024/04/10 01:27:40;;;;;;;9.80;2.60;;;;;;;7.61;100.00;100971.00;5418088;26;20581;-85
2024/04/10 01:30:08;;;;;;;6.53;2.30;;;;;;;7.69;100.00;100968.91;5442719;26;20379;-85
2024/04/10 01:32:38;;;;;;;7.83;2.50;;;;;;;7.74;100.00;100974.38;5455920;26;21265;-85
2024/04/10 01:35:06;;;;;;;6.28;2.10;;;;;;;7.78;100.00;100970.09;5419187;26;20377;-85
2024/04/10 01:37:37;;;;;;;7.87;2.40;;;;;;;7.75;100.00;100967.91;5427659;26;20391;-84
2024/04/10 01:40:06;;;;;;;9.65;2.50;;;;;;;7.69;100.00;100968.91;5415845;26;20386;-85
2024/04/10 01:42:38;;;;;;;7.72;2.83;;;;;;;7.69;100.00;100971.59;5447067;26;20893;-85
2024/04/10 01:45:07;;;;;;;10.55;2.70;;;;;;;7.65;100.00;100976.69;5400884;26;20372;-84
2024/04/10 01:47:37;;;;;;;9.35;2.50;;;;;;;7.58;100.00;100989.63;5416065;26;20394;-85
2024/04/10 01:50:05;;;;;;;6.07;2.60;;;;;;;7.62;100.00;100978.06;5448078;26;20412;-84
2024/04/10 01:52:35;;;;;;;8.33;2.53;;;;;;;7.66;100.00;100971.06;5447937;26;20798;-85
2024/04/10 01:55:03;;;;;;;6.45;2.60;;;;;;;7.72;100.00;100976.50;5431389;26;20401;-85
2024/04/10 01:57:33;;;;;;;7.20;2.50;;;;;;;7.73;100.00;100987.09;5421275;26;20434;-85
2024/04/10 02:00:03;;;;;;;9.50;2.70;;;;;;;7.72;100.00;100988.19;5396196;26;20391;-85
2024/04/10 02:04:01;;;;;;;11.32;3.10;;;;;;;7.76;100.00;100983.06;5546198;25;20379;-87
2024/04/10 02:06:31;;;;;;;10.67;2.70;;;;;;;7.74;100.00;100987.94;5528089;25;20357;-86
2024/04/10 02:09:02;;;;;;;7.88;2.67;;;;;;;7.80;100.00;100984.19;5531792;25;20399;-86
2024/04/10 02:11:35;;;;;;;10.20;2.73;;;;;;;7.82;100.00;100992.91;5529801;25;20337;-87
2024/04/10 02:14:07;;;;;;;9.52;2.95;;;;;;;7.80;100.00;100995.88;5528810;25;20404;-87
2024/04/10 02:16:37;;;;;;;9.48;2.58;;;;;;;7.82;100.00;101009.16;5529589;25;20391;-84
2024/04/10 02:19:10;;;;;;;8.35;2.65;;;;;;;7.86;100.00;101001.31;5529662;25;20833;-87
2024/04/10 02:21:38;;;;;;;8.65;2.70;;;;;;;7.85;100.00;101007.84;5529272;25;20411;-86
2024/04/10 02:24:13;;;;;;;8.43;2.70;;;;;;;7.71;100.00;101018.25;5531721;25;20367;-86
2024/04/10 02:26:55;;;;;;;7.00;2.50;;;;;;;7.75;100.00;101028.31;5529325;25;20402;-85
2024/04/10 02:29:28;;;;;;;9.90;3.08;;;;;;;7.76;100.00;101037.25;5561229;25;20387;-87
2024/04/10 02:31:59;;;;;;;6.90;2.43;;;;;;;7.72;100.00;101026.13;5532815;25;20404;-86
2024/04/10 02:34:35;;;;;;;9.50;2.65;;;;;;;7.79;100.00;101040.28;5527296;25;20356;-86
2024/04/10 02:37:03;;;;;;;8.80;2.75;;;;;;;7.85;100.00;101033.03;5533027;25;20394;-87
2024/04/10 02:39:34;;;;;;;9.70;2.85;;;;;;;7.82;100.00;101050.59;5530759;25;20391;-88
2024/04/10 02:42:07;;;;;;;10.35;2.90;;;;;;;7.92;100.00;101036.38;5527482;25;20353;-85
2024/04/10 02:44:50;;;;;;;11.27;2.60;;;;;;;7.89;100.00;101047.72;5532327;25;20325;-87
2024/04/10 02:47:18;;;;;;;10.18;2.65;;;;;;;7.93;100.00;101042.63;5529784;25;20895;-88
2024/04/10 02:49:51;;;;;;;7.13;2.60;;;;;;;7.97;100.00;101052.69;5531598;25;20367;-86
2024/04/10 02:52:19;;;;;;;14.63;3.03;;;;;;;7.94;100.00;101047.78;5533110;25;20380;-86
2024/04/10 02:54:51;;;;;;;8.35;2.72;;;;;;;8.03;100.00;101063.59;5528808;25;20845;-88
2024/04/10 02:57:31;;;;;;;10.63;2.72;;;;;;;7.98;100.00;101056.22;5529110;25;20319;-86
2024/04/10 03:00:02;;;;;;;6.20;2.50;;;;;;;7.99;100.00;101060.56;5528070;25;20382;-87
2024/04/10 03:02:32;;;;;;;7.30;2.50;;;;;;;8.04;100.00;101076.06;5532774;25;20331;-87
2024/04/10 03:05:05;;;;;;;8.40;2.90;;;;;;;8.04;100.00;101092.31;5531000;25;20313;-86
2024/04/10 03:07:34;;;;;;;10.00;2.80;;;;;;;8.04;100.00;101093.16;5527545;25;20390;-86
2024/04/10 03:10:08;;;;;;;9.70;3.00;;;;;;;8.00;100.00;101098.25;5529546;25;20386;-86
2024/04/10 03:12:36;;;;;;;8.48;2.85;;;;;;;8.01;100.00;101112.66;5526653;25;20453;-87
2024/04/10 03:15:16;;;;;;;10.07;2.92;;;;;;;8.03;100.00;101113.19;5515995;25;20365;-87
2024/04/10 03:17:46;;;;;;;8.37;3.00;;;;;;;7.98;100.00;101115.84;5509736;25;20391;-87
2024/04/10 03:20:21;;;;;;;12.48;3.30;;;;;;;7.95;100.00;101135.31;5513086;26;20375;-87
2024/04/10 03:22:49;;;;;;;10.55;3.45;;;;;;;7.94;100.00;101137.22;5513289;25;20340;-87
2024/04/10 03:25:19;;;;;;;11.95;3.13;;;;;;;7.82;100.00;101141.94;5514240;26;20361;-87
2024/04/10 03:27:54;;;;;;;9.70;2.97;;;;;;;7.73;100.00;101138.81;5512307;26;20363;-86
2024/04/10 03:30:26;;;;;;;8.52;2.78;;;;;;;7.62;100.00;101143.28;5514901;26;20406;-87
2024/04/10 03:33:00;;;;;;;8.77;2.90;;;;;;;7.52;100.00;101161.25;5513743;26;20906;-87
2024/04/10 03:35:38;;;;;;;7.00;2.10;;;;;;;7.54;100.00;101165.38;5512415;26;20350;-86
2024/04/10 03:38:08;;;;;;;5.32;2.08;;;;;;;7.55;100.00;101158.06;5514416;26;20746;-87
2024/04/10 03:40:38;;;;;;;8.50;2.50;;;;;;;7.61;100.00;101173.31;5517097;26;20388;-87
2024/04/10 03:43:10;;;;;;;6.75;2.03;;;;;;;7.64;100.00;101170.94;5515942;26;20730;-87
2024/04/10 03:45:43;;;;;;;4.55;1.60;;;;;;;7.62;100.00;101178.50;5511579;26;20375;-86
2024/04/10 03:48:16;;;;;;;5.30;1.60;;;;;;;7.57;100.00;101174.91;5509526;26;20334;-86
2024/04/10 03:50:51;;;;;;;4.38;1.60;;;;;;;7.54;100.00;101169.94;5514003;26;20388;-86
2024/04/10 03:53:36;;;;;;;6.15;1.50;;;;;;;7.56;100.00;101181.38;5513674;26;20449;-87
2024/04/10 03:56:06;;;;;;;5.95;1.33;;;;;;;7.53;100.00;101188.09;5515073;26;20726;-87
2024/04/10 03:58:43;;;;;;;5.63;1.40;;;;;;;7.54;100.00;101184.34;5512793;26;23587;-86
2024/04/10 04:01:18;;;;;;;4.40;1.38;;;;;;;7.64;100.00;101189.88;5511069;25;20323;-85
2024/04/10 04:03:48;;;;;;;6.25;1.25;;;;;;;7.65;100.00;101198.81;5512733;26;20347;-86
2024/04/10 04:06:18;;;;;;;6.15;1.40;;;;;;;7.61;100.00;101201.22;5509845;26;20958;-86
2024/04/10 04:08:58;;;;;;;5.13;1.00;;;;;;;7.65;100.00;101215.91;5508465;26;21746;-84
2024/04/10 04:11:29;;;;;;;4.82;1.17;;;;;;;7.60;100.00;101212.31;5513532;26;20351;-85
2024/04/10 04:14:03;;;;;;;4.72;1.10;;;;;;;7.71;100.00;101224.13;5513686;26;20363;-86
2024/04/10 04:16:34;;;;;;;4.63;1.25;;;;;;;7.76;100.00;101225.03;5513046;26;20308;-85
2024/04/10 04:19:04;;;;;;;3.95;1.00;;;;;;;7.71;100.00;101234.97;5509305;26;20775;-85
2024/04/10 04:21:34;;;;;;;4.63;1.27;;;;;;;7.60;100.00;101228.56;5508536;26;20327;-87
2024/04/10 04:24:05;;;;;;;6.93;1.30;;;;;;;7.61;100.00;101239.16;5510037;26;20339;-84
2024/04/10 04:26:32;;;;;;;5.40;1.00;;;;;;;7.65;100.00;101237.59;5513371;26;20323;-86
2024/04/10 04:29:04;;;;;;;5.70;1.25;;;;;;;7.64;100.00;101232.44;5511013;26;20673;-86
2024/04/10 04:31:32;;;;;;;5.32;1.10;;;;;;;7.56;100.00;101233.66;5509760;26;21200;-85
2024/04/10 04:34:09;;;;;;;4.50;1.00;;;;;;;7.63;100.00;101250.53;5510742;26;20367;-86
2024/04/10 04:36:43;;;;;;;4.80;1.00;;;;;;;7.66;100.00;101257.38;5513008;26;20748;-85
2024/04/10 04:40:00;;;;;;;;;;;;;;;;;;;;;
2024/04/10 04:43:23;;;;;;;3.70;1.10;;;;;;;7.72;100.00;101277.22;5514875;25;20391;-85
2024/04/10 04:45:54;;;;;;;5.20;0.90;;;;;;;7.72;100.00;101275.38;5501710;26;20910;-85
2024/04/10 04:48:24;;;;;;;4.43;1.05;;;;;;;7.75;100.00;101290.31;5511715;26;20311;-86
2024/04/10 04:50:54;;;;;;;2.78;1.10;;;;;;;7.79;100.00;101294.97;5498135;26;20327;-85
2024/04/10 04:53:30;;;;;;;4.22;1.00;;;;;;;7.76;100.00;101289.22;5515236;26;20375;-86
2024/04/10 04:56:00;;;;;;;2.42;0.80;;;;;;;7.82;100.00;101305.31;5510642;26;20841;-84
2024/04/10 04:58:36;;;;;;;5.43;1.00;;;;;;;7.88;100.00;101322.47;5511648;25;20399;-86
2024/04/10 05:01:04;;;;;;;3.22;0.88;;;;;;;7.87;100.00;101333.56;5509947;26;20913;-85
2024/04/10 05:06:32;;;;;;;5.37;1.20;;;;;;;7.93;100.00;101346.16;5509345;26;21190;-86
2024/04/10 05:09:09;;;;;;;3.70;0.95;;;;;;;7.89;100.00;101347.72;5508271;26;20367;-86
2024/04/10 05:11:40;;;;;;;3.23;1.20;;;;;;;7.92;100.00;101368.91;5509568;26;20366;-86
2024/04/10 05:14:10;;;;;;;5.28;1.13;;;;;;;7.89;100.00;101372.09;5514060;26;20400;-86
2024/04/10 05:16:37;;;;;;;6.00;1.20;;;;;;;7.89;100.00;101369.41;5497829;25;23424;-86
2024/04/10 05:19:07;;;;;;;4.32;1.15;;;;;;;7.84;100.00;101378.22;5511138;25;20413;-86
2024/04/10 05:21:37;;;;;;;4.03;1.33;;;;;;;7.74;100.00;101397.84;5497951;26;20452;-86
2024/04/10 05:24:17;;;;;;;7.40;1.50;;;;;;;7.67;100.00;101421.56;5503761;25;20359;-85
2024/04/10 05:26:52;;;;;;;5.85;1.45;;;;;;;7.42;100.00;101411.88;5509761;26;20739;-86
2024/04/10 05:29:25;;;;;;;4.80;1.30;;;;;;;7.36;100.00;101420.97;5509520;26;20386;-83
2024/04/10 05:31:55;;;;;;;6.50;1.60;;;;;;;7.26;100.00;101426.16;5495699;26;20391;-86
2024/04/10 05:34:22;;;;;;;4.03;1.30;;;;;;;7.28;100.00;101430.28;5514830;26;20359;-85
2024/04/10 05:36:52;;;;;;;5.13;1.42;;;;;;;7.26;100.00;101440.50;5513634;26;20365;-87
2024/04/10 05:39:24;;;;;;;5.15;1.73;;;;;;;7.41;100.00;101452.75;5516866;26;20887;-84
2024/04/10 05:41:54;;;;;;;7.75;1.90;;;;;;;7.40;100.00;101441.09;5531615;25;20366;-85
2024/04/10 05:44:22;;;;;;;10.10;2.00;;;;;;;7.40;100.00;101454.63;5515360;26;20388;-84
2024/04/10 05:46:52;;;;;;;8.20;1.83;;;;;;;7.50;100.00;101459.44;5509835;26;20905;-85
2024/04/10 05:49:20;;;;;;;8.45;1.75;;;;;;;7.45;100.00;101462.03;5508052;26;20378;-85
2024/04/10 05:51:50;;;;;;;7.60;1.80;;;;;;;7.38;100.00;101474.88;5509486;26;20872;-85
2024/04/10 05:54:17;;;;;;;7.60;1.55;;;;;;;7.44;100.00;101487.47;5517594;26;20367;-85
2024/04/10 05:56:50;;;;;;;5.85;1.63;;;;;;;7.38;100.00;101483.81;5516750;25;20381;-86
2024/04/10 05:59:18;;;;;;;6.10;1.25;;;;;;;7.39;100.00;101492.75;5530967;25;20388;-86
2024/04/10 06:01:48;;;;;;;7.57;1.52;;;;;;;7.48;100.00;101494.03;5517148;26;21205;-86
2024/04/10 06:04:15;;;;;;;6.40;1.40;;;;;;;7.51;100.00;101495.47;5516512;26;20383;-86
2024/04/10 06:06:45;;;;;;;8.10;2.03;;;;;;;7.50;100.00;101481.09;5514647;26;20397;-88
2024/04/10 06:09:18;;;;;;;8.57;1.73;;;;;;;7.47;100.00;101479.69;5536053;25;20381;-87
2024/04/10 06:11:51;;;;;;;8.23;1.70;;;;;;;7.61;100.00;101501.06;5509654;26;20377;-88
2024/04/10 06:14:18;;;;;;;8.70;1.88;;;;;;;7.65;100.00;101513.91;5512126;26;21287;-87
2024/04/10 06:16:49;;;;;;;5.63;1.63;;;;;;;7.62;100.00;101532.53;5512190;26;20372;-88
2024/04/10 06:19:16;;;;;;;7.30;1.75;;;;;;;7.65;100.00;101541.00;5511906;25;20396;-86
2024/04/10 06:21:46;;;;;;;7.80;1.80;;;;;;;7.68;100.00;101555.13;5512264;26;20643;-88
2024/04/10 06:24:18;;;;;;;9.13;1.50;;;;;;;7.64;100.00;101543.97;5516801;26;20375;-89
2024/04/10 06:26:51;;;;;;;5.55;1.30;;;;;;;7.64;100.00;101549.38;5500352;26;20370;-87
2024/04/10 06:29:18;;;;;;;6.55;1.00;;;;;;;7.65;100.00;101561.84;5517543;25;20741;-88
2024/04/10 06:31:48;;;;;;;6.18;1.17;;;;;;;7.53;100.00;101556.47;5509544;26;20383;-87
2024/04/10 06:34:16;;;;;;;5.53;1.17;;;;;;;7.55;100.00;101550.81;5512544;26;20423;-87
2024/04/10 06:36:46;;;;;;;7.03;1.60;;;;;;;7.60;100.00;101554.44;5508661;25;20556;-87
2024/04/10 06:39:13;;;;;;;7.90;1.83;;;;;;;7.52;100.00;101546.69;5516566;26;20375;-87
2024/04/10 06:41:43;;;;;;;6.38;1.63;;;;;;;7.49;100.00;101558.00;5515638;26;20388;-87
2024/04/10 06:44:13;;;;;;;3.97;1.30;;;;;;;7.51;100.00;101544.22;5518149;26;20762;-87
2024/04/10 06:46:44;;;;;;;8.35;1.65;;;;;;;7.50;100.00;101556.94;5510629;26;20371;-86
2024/04/10 06:49:12;;;;;;;6.15;1.60;;;;;;;7.71;100.00;101573.63;5519030;26;20355;-86
2024/04/10 06:51:42;;;;;;;7.53;1.40;;;;;;;7.71;100.00;101577.16;5518448;26;20378;-84
2024/04/10 06:54:10;;;;;;;8.70;1.55;;;;;;;8.07;100.00;101580.59;5519195;25;20363;-84
2024/04/10 06:56:40;;;;;;;8.10;1.58;;;;;;;8.20;100.00;101592.22;5517544;26;20392;-85
2024/04/10 06:59:08;;;;;;;7.82;2.20;;;;;;;8.38;100.00;101585.78;5519946;25;20352;-85
2024/04/10 07:01:41;;;;;;;7.05;1.50;;;;;;;8.48;100.00;101591.44;5514741;26;20385;-85
2024/04/10 07:04:08;;;;;;;7.10;1.60;;;;;;;8.45;100.00;101594.63;5520120;26;20778;-85
2024/04/10 07:06:38;;;;;;;8.13;1.65;;;;;;;8.35;100.00;101587.09;5520595;26;20375;-86
2024/04/10 07:09:08;;;;;;;6.40;1.25;;;;;;;8.44;100.00;101588.34;5520435;26;20364;-85
2024/04/10 07:11:40;;;;;;;9.70;1.35;;;;;;;8.48;100.00;101600.41;5517240;26;20957;-86
2024/04/10 07:14:07;;;;;;;8.45;1.52;;;;;;;8.41;100.00;101607.84;5521014;26;20882;-85
2024/04/10 07:16:37;;;;;;;5.00;1.33;;;;;;;8.38;100.00;101613.72;5517614;25;20375;-87
2024/04/10 07:19:07;;;;;;;13.20;1.63;;;;;;;8.48;100.00;101632.16;5520472;26;21226;-85
2024/04/10 07:21:37;;;;;;;5.80;1.25;;;;;;;8.48;100.00;101640.28;5509752;26;20379;-86
2024/04/10 07:24:06;;;;;;;8.05;1.55;;;;;;;8.23;100.00;101633.25;5518397;25;20351;-85
2024/04/10 07:26:36;;;;;;;8.43;1.80;;;;;;;8.09;100.00;101643.56;5516310;26;20439;-84
2024/04/10 07:29:04;;;;;;;7.63;1.45;;;;;;;8.02;100.00;101642.84;5513644;26;20386;-84
2024/04/10 07:31:36;;;;;;;10.07;1.50;;;;;;;8.15;100.00;101645.28;5515712;26;20754;-83
2024/04/10 07:34:04;;;;;;;8.77;1.50;;;;;;;8.22;100.00;101657.91;5516203;25;20387;-85
2024/04/10 07:36:38;;;;;;;7.63;1.30;;;;;;;8.39;100.00;101657.97;5539383;25;20374;-85
2024/04/10 07:39:06;;;;;;;9.25;1.80;;;;;;;8.45;100.00;101659.72;5512484;26;20395;-85
2024/04/10 07:41:37;;;;;;;6.43;1.70;;;;;;;8.72;100.00;101668.13;5516229;25;20551;-85
2024/04/10 07:44:05;;;;;;;9.30;1.50;;;;;;;8.84;100.00;101671.59;5428121;25;20375;-84
2024/04/10 07:46:36;;;;;;;9.55;1.52;;;;;;;8.71;100.00;101662.94;5480129;26;20331;-84
2024/04/10 07:49:03;;;;;;;8.30;1.35;;;;;;;8.79;100.00;101674.22;5448176;25;20361;-83
2024/04/10 07:51:33;;;;;;;5.03;1.13;;;;;;;8.84;100.00;101676.22;5431176;26;20370;-84
2024/04/10 07:54:03;;;;;;;7.78;1.42;;;;;;;9.04;100.00;101683.91;5452524;26;20967;-84
2024/04/10 07:56:34;;;;;;;6.43;1.60;;;;;;;9.51;100.00;101686.31;5433286;26;20359;-84
2024/04/10 07:59:04;;;;;;;9.05;1.92;;;;;;;9.67;100.00;101687.38;5439855;26;20580;-85
2024/04/10 08:01:31;;;;;;;7.68;1.40;;;;;;;9.76;100.00;101692.38;5449492;26;20334;-83
2024/04/10 08:04:05;;;;;;;8.13;1.52;;;;;;;9.57;100.00;101695.38;5440684;26;20370;-87
2024/04/10 08:06:36;;;;;;;6.78;1.67;;;;;;;9.40;100.00;101699.97;5439537;26;20332;-86
2024/04/10 08:09:09;;;;;;;6.28;1.30;;;;;;;9.32;100.00;101723.78;5438137;26;20672;-85
2024/04/10 08:11:37;;;;;;;9.73;1.60;;;;;;;9.24;100.00;101737.75;5441387;26;20334;-87
2024/04/10 08:14:07;;;;;;;6.75;1.23;;;;;;;9.13;100.00;101741.38;5449146;26;20327;-84
2024/04/10 08:16:35;;;;;;;5.87;1.20;;;;;;;9.05;100.00;101741.75;5440479;26;20340;-87
2024/04/10 08:19:06;;;;;;;11.40;1.60;;;;;;;8.89;100.00;101748.78;5448816;26;20318;-85
2024/04/10 08:21:36;;;;;;;7.05;1.48;;;;;;;8.93;100.00;101766.22;5450603;26;20361;-86
2024/04/10 08:24:09;;;;;;;7.90;1.27;;;;;;;8.91;100.00;101773.78;5439792;26;20458;-86
2024/04/10 08:26:37;;;;;;;8.32;1.35;;;;;;;8.89;100.00;101774.03;5439184;26;20308;-85
2024/04/10 08:29:08;;;;;;;11.70;1.50;;;;;;;8.93;100.00;101768.94;5440053;26;20671;-87
2024/04/10 08:31:36;;;;;;;6.65;1.33;;;;;;;8.92;100.00;101772.72;5428209;26;20364;-85
2024/04/10 08:34:07;;;;;;;9.87;1.47;;;;;;;9.21;100.00;101770.84;5443932;26;20343;-85
2024/04/10 08:36:35;;;;;;;8.55;1.33;;;;;;;9.40;100.00;101784.19;5456935;25;20312;-85
2024/04/10 08:39:06;;;;;;;6.68;1.23;;;;;;;9.19;100.00;101783.81;5430057;25;20330;-86
2024/04/10 08:41:39;;;;;;;9.13;1.42;;;;;;;9.08;100.00;101768.41;5444924;26;20327;-86
2024/04/10 08:44:11;;;;;;;8.98;1.42;;;;;;;9.12;100.00;101788.59;5403343;25;20920;-86
2024/04/10 08:46:39;;;;;;;9.07;1.60;;;;;;;9.12;100.00;101792.13;5385146;26;20333;-88
2024/04/10 08:49:09;;;;;;;8.40;1.60;;;;;;;9.08;100.00;101790.13;5399116;26;20569;-87
2024/04/10 08:51:39;;;;;;;7.80;1.58;;;;;;;9.12;100.00;101788.59;5378680;26;20340;-85
2024/04/10 08:54:12;;;;;;;9.98;1.50;;;;;;;9.14;100.00;101790.00;5398551;26;20337;-85
2024/04/10 08:56:42;;;;;;;8.17;1.73;;;;;;;9.08;100.00;101795.56;5379811;26;20386;-86
2024/04/10 08:59:17;;;;;;;9.52;1.55;;;;;;;9.42;100.00;101798.34;5395614;26;20321;-86
2024/04/10 09:01:47;;;;;;;9.95;1.65;;;;;;;9.40;100.00;101797.78;5394406;26;21778;-86
2024/04/10 09:04:17;;;;;;;10.30;1.53;;;;;;;9.77;100.00;101802.78;5388870;26;20938;-88
2024/04/10 09:06:49;;;;;;;10.25;1.58;;;;;;;10.25;100.00;101795.06;5392907;26;20359;-85
2024/04/10 09:09:22;;;;;;;6.75;1.40;;;;;;;10.43;100.00;101813.88;5376890;26;20341;-85
2024/04/10 09:11:56;;;;;;;9.13;1.65;;;;;;;10.30;100.00;101817.75;5391157;26;20336;-86
2024/04/10 09:14:23;;;;;;;12.32;1.58;;;;;;;10.55;100.00;101830.09;5379122;26;20329;-87
2024/04/10 09:16:54;;;;;;;9.50;1.55;;;;;;;10.44;100.00;101831.00;5390572;26;20324;-85
2024/04/10 09:19:22;;;;;;;11.35;1.33;;;;;;;10.59;100.00;101833.94;5380383;26;20688;-88
2024/04/10 09:21:58;;;;;;;10.38;1.45;;;;;;;10.58;100.00;101837.75;5391049;26;20359;-87
2024/04/10 09:24:27;;;;;;;8.30;1.43;;;;;;;10.62;100.00;101841.63;5410408;26;20408;-84
2024/04/10 09:27:00;;;;;;;6.75;1.48;;;;;;;10.83;100.00;101850.88;5430600;25;20364;-87
2024/04/10 09:29:29;;;;;;;10.20;1.58;;;;;;;10.95;100.00;101845.31;5379790;26;20361;-86
2024/04/10 09:32:04;;;;;;;7.75;1.27;;;;;;;10.91;100.00;101856.94;5398692;26;20479;-86
2024/04/10 09:34:32;;;;;;;8.80;1.63;;;;;;;10.87;100.00;101867.53;5379837;26;23422;-89
2024/04/10 09:37:03;;;;;;;7.45;1.40;;;;;;;10.88;100.00;101869.16;5387450;26;21156;-84
2024/04/10 09:39:31;;;;;;;10.93;2.03;;;;;;;10.66;100.00;101875.44;5386840;26;20363;-88
2024/04/10 09:42:13;;;;;;;9.05;1.30;;;;;;;10.40;100.00;101868.78;5390705;26;20370;-85
2024/04/10 09:44:43;;;;;;;10.18;1.60;;;;;;;10.46;100.00;101875.13;5381632;25;20341;-85
2024/04/10 09:47:17;;;;;;;12.07;1.60;;;;;;;10.44;100.00;101880.00;5383923;26;20333;-87
2024/04/10 09:49:48;;;;;;;8.70;1.30;;;;;;;10.56;100.00;101886.16;5400509;26;20317;-85
2024/04/10 09:52:20;;;;;;;9.15;1.48;;;;;;;10.49;100.00;101890.97;5391053;26;20684;-88
2024/04/10 09:54:49;;;;;;;10.63;1.80;;;;;;;10.48;100.00;101901.03;5388177;26;20367;-87
2024/04/10 09:57:22;;;;;;;7.13;1.67;;;;;;;10.56;100.00;101886.16;5414524;26;20325;-85
2024/04/10 09:59:51;;;;;;;8.02;1.48;;;;;;;10.37;100.00;101900.03;5395326;26;20374;-85
2024/04/10 10:02:21;;;;;;;9.40;1.40;;;;;;;10.65;100.00;101898.28;5393770;26;20360;-86
2024/04/10 10:04:49;;;;;;;5.87;1.03;;;;;;;10.78;100.00;101893.56;5380039;26;20355;-83
2024/04/10 10:07:23;;;;;;;8.68;1.45;;;;;;;10.77;100.00;101881.84;5405295;26;20337;-85
2024/04/10 10:09:50;;;;;;;7.88;1.52;;;;;;;10.96;100.00;101895.97;5400443;26;20731;-86
2024/04/10 10:12:30;;;;;;;12.73;1.65;;;;;;;10.79;100.00;101890.56;5380290;26;20869;-86
2024/04/10 10:15:06;;;;;;;8.27;1.60;;;;;;;10.75;100.00;101892.16;5385267;26;20349;-85
2024/04/10 10:17:36;;;;;;;8.00;1.40;;;;;;;10.84;100.00;101895.25;5406995;26;20376;-86
2024/04/10 10:20:04;;;;;;;9.60;1.80;;;;;;;10.86;100.00;101895.84;5377160;26;20365;-87
2024/04/10 10:22:35;;;;;;;7.53;1.40;;;;;;;10.97;100.00;101902.25;5386859;26;20925;-86
2024/04/10 10:25:05;;;;;;;10.95;1.77;;;;;;;10.81;100.00;101904.78;5383966;26;20332;-87
2024/04/10 10:27:38;;;;;;;9.25;1.63;;;;;;;11.15;100.00;101899.19;5387382;26;20328;-86
2024/04/10 10:30:07;;;;;;;8.73;1.67;;;;;;;10.97;100.00;101910.41;5379705;26;20332;-85
2024/04/10 10:32:37;;;;;;;7.47;1.90;;;;;;;10.93;100.00;101895.66;5375120;26;20466;-84
2024/04/10 10:35:06;;;;;;;6.93;1.35;;;;;;;11.44;100.00;101900.91;5374546;26;20376;-86
2024/04/10 10:37:36;;;;;;;7.00;1.33;;;;;;;11.83;100.00;101909.75;5373864;26;20365;-84
2024/04/10 10:40:06;;;;;;;11.85;1.70;;;;;;;11.88;100.00;101912.53;5387792;26;20337;-87
2024/04/10 10:42:39;;;;;;;10.77;1.63;;;;;;;11.97;100.00;101917.56;5384953;26;20364;-86
2024/04/10 10:45:07;;;;;;;10.77;1.48;;;;;;;12.05;100.00;101922.53;5335478;26;20345;-85
2024/04/10 10:47:41;;;;;;;11.77;2.00;;;;;;;11.95;100.00;101933.38;5359672;26;20709;-85
2024/04/10 10:50:09;;;;;;;11.57;2.05;;;;;;;11.90;100.00;101926.75;5366942;26;20874;-87
2024/04/10 10:52:40;;;;;;;12.13;1.70;;;;;;;12.30;100.00;101927.38;5393915;26;20368;-85
2024/04/10 10:55:13;;;;;;;10.85;1.63;;;;;;;12.16;100.00;101934.38;5367840;26;21276;-85
2024/04/10 10:57:46;;;;;;;9.10;1.67;;;;;;;11.95;100.00;101926.00;5399946;26;20361;-86
2024/04/10 11:00:15;;;;;;;6.90;1.30;;;;;;;11.97;100.00;101939.38;5419252;26;20379;-85
2024/04/10 11:02:46;;;;;;;7.35;1.65;;;;;;;11.77;100.00;101943.53;5376833;26;20337;-86
2024/04/10 11:05:14;;;;;;;6.93;1.50;;;;;;;11.48;100.00;101951.94;5362283;26;22488;-86
2024/04/10 11:07:45;;;;;;;7.68;1.50;;;;;;;11.50;100.00;101947.06;5370789;26;21051;-85
2024/04/10 11:10:14;;;;;;;5.55;1.40;;;;;;;11.89;100.00;101944.19;5407007;26;20359;-87
2024/04/10 11:12:47;;;;;;;8.73;1.80;;;;;;;12.00;100.00;101949.75;5385580;26;20347;-86
2024/04/10 11:15:14;;;;;;;7.20;1.42;;;;;;;12.03;100.00;101944.63;5380748;26;20911;-86
2024/04/10 11:17:45;;;;;;;8.88;1.52;;;;;;;12.04;100.00;101948.16;5374354;26;20381;-84
2024/04/10 11:20:12;;;;;;;7.43;1.35;;;;;;;11.86;100.00;101947.44;5376191;26;20438;-85
2024/04/10 11:22:43;;;;;;;6.90;1.65;;;;;;;11.87;100.00;101953.72;5385700;26;20452;-85
2024/04/10 11:25:11;;;;;;;7.77;1.57;;;;;;;11.89;100.00;101948.81;5401477;26;20353;-84
2024/04/10 11:27:41;;;;;;;7.90;1.58;;;;;;;11.65;100.00;101949.09;5367721;26;20339;-86
2024/04/10 11:30:12;;;;;;;10.57;1.80;;;;;;;11.45;100.00;101952.44;5383810;26;21732;-85
2024/04/10 11:32:42;;;;;;;8.63;1.23;;;;;;;11.54;100.00;101947.34;5368685;26;20321;-86
2024/04/10 11:35:13;;;;;;;7.53;1.48;;;;;;;11.61;100.00;101944.44;5379538;26;20325;-86
2024/04/10 11:37:44;;;;;;;8.32;1.40;;;;;;;11.42;100.00;101952.97;5380770;26;20351;-85
2024/04/10 11:40:12;;;;;;;8.70;1.65;;;;;;;11.35;100.00;101960.47;5385140;26;20371;-85
2024/04/10 11:42:42;;;;;;;9.05;1.67;;;;;;;11.66;100.00;101958.13;5389109;26;20348;-87
2024/04/10 11:45:12;;;;;;;7.78;1.45;;;;;;;11.69;100.00;101971.25;5367153;26;20345;-86